Time;durP1;ratioP1;P1;durP2;ratioP2;P2;SDS_P1;SDS_P2;PMS_P1;PMS_P2;Temp;Humidity;BMP_temperature;BMP_pressure;BME280_temperature;BME280_humidity;BME280_pressure;Samples;Min_cycle;Max_cycle;Signal;HPM_P1;HPM_P2
2022/09/18 00:01:52;;;;;;;0.47;0.25;;;;;;;10.75;100.00;100342.38;5087995;28;20032;-64
2022/09/18 00:04:17;;;;;;;1.42;0.30;;;;;;;10.74;100.00;100345.94;5086443;28;20255;-64
2022/09/18 00:06:44;;;;;;;5.38;0.35;;;;;;;10.78;100.00;100347.28;5088646;28;20049;-65
2022/09/18 00:09:13;;;;;;;0.73;0.22;;;;;;;10.74;100.00;100351.16;5086301;28;20142;-65
2022/09/18 00:11:44;;;;;;;0.70;0.20;;;;;;;10.71;100.00;100351.47;5087378;28;20627;-65
2022/09/18 00:14:13;;;;;;;0.82;0.10;;;;;;;10.72;100.00;100347.88;5080548;28;20059;-62
2022/09/18 00:16:39;;;;;;;1.85;0.20;;;;;;;10.66;100.00;100358.06;5082414;28;20061;-62
2022/09/18 00:19:04;;;;;;;0.43;0.20;;;;;;;10.64;100.00;100359.03;5081940;28;20380;-62
2022/09/18 00:21:31;;;;;;;0.50;0.15;;;;;;;10.62;100.00;100357.56;5087578;28;20035;-62
2022/09/18 00:23:59;;;;;;;1.42;0.25;;;;;;;10.60;100.00;100347.28;5087177;28;20388;-62
2022/09/18 00:26:26;;;;;;;2.00;0.13;;;;;;;10.55;100.00;100352.09;5086594;28;20036;-61
2022/09/18 00:28:56;;;;;;;1.30;0.20;;;;;;;10.56;100.00;100358.97;5076248;28;20073;-61
2022/09/18 00:31:25;;;;;;;0.40;0.20;;;;;;;10.49;100.00;100357.06;5079327;28;20486;-63
2022/09/18 00:33:52;;;;;;;0.40;0.20;;;;;;;10.41;100.00;100355.19;5077058;28;20486;-62
2022/09/18 00:36:18;;;;;;;3.05;0.20;;;;;;;10.39;100.00;100351.13;5067763;28;20059;-62
2022/09/18 00:38:45;;;;;;;1.08;0.20;;;;;;;10.40;100.00;100347.56;5078734;28;20040;-62
2022/09/18 00:41:24;;;;;;;4.30;0.20;;;;;;;10.36;100.00;100336.63;5087892;28;20028;-61
2022/09/18 00:43:51;;;;;;;2.80;0.30;;;;;;;10.36;100.00;100331.41;5068975;28;20036;-63
2022/09/18 00:46:31;;;;;;;3.15;0.30;;;;;;;10.38;100.00;100337.28;5079056;28;20484;-61
2022/09/18 00:49:12;;;;;;;2.05;0.60;;;;;;;10.35;100.00;100336.75;5084798;28;20376;-62
2022/09/18 00:51:39;;;;;;;0.70;0.20;;;;;;;10.34;100.00;100346.34;5082031;28;20024;-62
2022/09/18 00:54:16;;;;;;;1.38;0.20;;;;;;;10.28;100.00;100345.16;5087673;28;20051;-62
2022/09/18 00:56:43;;;;;;;2.13;0.17;;;;;;;10.34;100.00;100343.75;5086265;28;20059;-62
2022/09/18 00:59:11;;;;;;;0.70;0.30;;;;;;;10.26;100.00;100352.28;5073510;28;20020;-64
2022/09/18 01:01:37;;;;;;;0.50;0.20;;;;;;;10.22;100.00;100350.13;5081790;28;20036;-61
2022/09/18 01:04:03;;;;;;;4.65;0.75;;;;;;;10.10;100.00;100346.03;5086964;28;20450;-62
2022/09/18 01:06:37;;;;;;;1.15;0.20;;;;;;;10.06;100.00;100350.69;5087999;28;20492;-61
2022/09/18 01:09:32;;;;;;;0.77;0.20;;;;;;;10.01;100.00;100352.09;5085056;28;20086;-63
2022/09/18 01:12:38;;;;;;;1.85;0.32;;;;;;;9.95;100.00;100366.50;5067906;28;20102;-64
2022/09/18 01:15:16;;;;;;;1.35;0.35;;;;;;;10.05;100.00;100356.88;5034545;28;20056;-65
2022/09/18 01:18:20;;;;;;;2.03;0.30;;;;;;;10.15;100.00;100364.63;5027967;28;20040;-64
2022/09/18 01:21:06;;;;;;;1.00;0.30;;;;;;;10.23;100.00;100363.00;5045826;28;20057;-64
2022/09/18 01:23:50;;;;;;;0.98;0.20;;;;;;;10.23;100.00;100349.97;5038800;28;20247;-65
2022/09/18 01:26:23;;;;;;;0.95;0.35;;;;;;;10.21;100.00;100348.47;5028251;28;20563;-64
2022/09/18 01:29:14;;;;;;;0.52;0.20;;;;;;;10.22;100.00;100352.72;5030638;28;20055;-64
2022/09/18 01:31:55;;;;;;;0.98;0.40;;;;;;;10.26;100.00;100357.50;5029859;28;20136;-64
2022/09/18 01:34:34;;;;;;;0.52;0.22;;;;;;;10.29;100.00;100354.59;5041856;28;20098;-64
2022/09/18 01:37:12;;;;;;;2.60;0.30;;;;;;;10.27;100.00;100356.53;5042574;28;20107;-63
2022/09/18 01:39:45;;;;;;;3.30;0.20;;;;;;;10.30;100.00;100358.03;5023869;28;20044;-64
2022/09/18 01:42:12;;;;;;;0.95;0.28;;;;;;;10.33;100.00;100364.72;5028333;28;20045;-65
2022/09/18 01:44:41;;;;;;;1.20;0.40;;;;;;;10.31;100.00;100364.88;5029065;28;20100;-65
2022/09/18 01:47:10;;;;;;;1.10;0.20;;;;;;;10.37;100.00;100371.28;5028661;28;20041;-64
2022/09/18 01:49:49;;;;;;;3.30;0.30;;;;;;;10.38;100.00;100372.94;5069126;28;20036;-63
2022/09/18 01:52:18;;;;;;;2.25;0.25;;;;;;;10.33;100.00;100373.38;5085585;28;20497;-64
2022/09/18 01:54:47;;;;;;;0.85;0.25;;;;;;;10.30;100.00;100373.66;5091270;28;20056;-65
2022/09/18 01:57:21;;;;;;;1.52;0.35;;;;;;;10.30;100.00;100369.25;5089084;28;20425;-66
2022/09/18 01:59:59;;;;;;;1.23;0.22;;;;;;;10.28;100.00;100371.19;5075001;28;20036;-65
2022/09/18 02:02:41;;;;;;;0.98;0.38;;;;;;;10.31;100.00;100375.28;5089038;28;20059;-64
2022/09/18 02:05:10;;;;;;;1.38;0.20;;;;;;;10.34;100.00;100369.78;5090415;28;20039;-64
2022/09/18 02:08:00;;;;;;;0.95;0.30;;;;;;;10.41;100.00;100370.00;5084098;28;20032;-64
2022/09/18 02:10:30;;;;;;;3.63;0.20;;;;;;;10.46;100.00;100378.22;5087877;28;20051;-64
2022/09/18 02:12:56;;;;;;;3.28;0.20;;;;;;;10.47;100.00;100372.03;5090355;28;20446;-64
2022/09/18 02:15:26;;;;;;;0.47;0.20;;;;;;;10.50;100.00;100374.34;5085920;28;20144;-64
2022/09/18 02:18:07;;;;;;;1.42;0.20;;;;;;;10.52;100.00;100377.63;5074815;28;20111;-64
2022/09/18 02:20:35;;;;;;;1.02;0.20;;;;;;;10.55;100.00;100382.53;5090560;28;20024;-64
2022/09/18 02:23:04;;;;;;;2.22;0.30;;;;;;;10.55;100.00;100385.16;5090359;28;20093;-64
2022/09/18 02:25:36;;;;;;;0.50;0.22;;;;;;;10.54;100.00;100392.16;5085430;28;20024;-65
2022/09/18 02:28:05;;;;;;;1.95;0.20;;;;;;;10.51;100.00;100396.81;5069734;28;20472;-64
2022/09/18 02:30:32;;;;;;;0.65;0.20;;;;;;;10.55;100.00;100400.78;5078916;28;20039;-64
2022/09/18 02:32:58;;;;;;;0.60;0.20;;;;;;;10.55;100.00;100398.19;5074838;28;20030;-65
2022/09/18 02:35:36;;;;;;;1.65;0.20;;;;;;;10.55;100.00;100413.81;5087468;28;20524;-64
2022/09/18 02:38:21;;;;;;;0.68;0.20;;;;;;;10.48;100.00;100397.94;5089956;28;20032;-64
2022/09/18 02:40:53;;;;;;;3.55;0.30;;;;;;;10.47;100.00;100395.47;5089468;28;20442;-64
2022/09/18 02:43:50;;;;;;;2.28;0.20;;;;;;;10.42;100.00;100398.50;5089963;28;20433;-65
2022/09/18 02:46:46;;;;;;;1.38;0.32;;;;;;;10.37;100.00;100399.94;5083996;28;20094;-65
2022/09/18 02:49:33;;;;;;;1.23;0.22;;;;;;;10.36;100.00;100408.72;5081793;28;20036;-64
2022/09/18 02:52:21;;;;;;;0.90;0.28;;;;;;;10.36;100.00;100401.72;5088805;28;20047;-64
2022/09/18 02:54:54;;;;;;;0.50;0.20;;;;;;;10.35;100.00;100402.69;5086839;28;20027;-64
2022/09/18 02:57:34;;;;;;;1.38;0.20;;;;;;;10.31;100.00;100396.13;5068648;28;20047;-63
2022/09/18 03:00:01;;;;;;;1.80;0.20;;;;;;;10.28;100.00;100407.66;5068667;28;20545;-65
2022/09/18 03:02:27;;;;;;;0.60;0.20;;;;;;;10.27;100.00;100406.00;5073347;28;20047;-65
2022/09/18 03:04:53;;;;;;;1.50;0.20;;;;;;;10.30;100.00;100399.69;5088664;28;20028;-64
2022/09/18 03:07:19;;;;;;;1.13;0.20;;;;;;;10.32;100.00;100407.38;5089795;28;20472;-64
2022/09/18 03:09:44;;;;;;;1.08;0.20;;;;;;;10.30;100.00;100404.91;5087966;28;20670;-63
2022/09/18 03:12:10;;;;;;;3.47;0.20;;;;;;;10.29;100.00;100404.09;5088951;28;20043;-64
2022/09/18 03:14:36;;;;;;;2.85;0.25;;;;;;;10.29;100.00;100408.47;5088282;28;20109;-63
2022/09/18 03:17:02;;;;;;;2.10;0.25;;;;;;;10.31;100.00;100401.34;5081838;28;20028;-64
2022/09/18 03:19:27;;;;;;;0.60;0.30;;;;;;;10.37;100.00;100397.34;5086519;28;20074;-64
2022/09/18 03:21:53;;;;;;;3.17;0.20;;;;;;;10.40;100.00;100402.25;5089328;28;20055;-64
2022/09/18 03:24:19;;;;;;;0.80;0.20;;;;;;;10.41;100.00;100401.25;5079630;28;20082;-64
2022/09/18 03:26:45;;;;;;;1.42;0.20;;;;;;;10.44;100.00;100400.97;5084092;28;20028;-64
2022/09/18 03:29:12;;;;;;;1.65;0.30;;;;;;;10.45;100.00;100402.63;5090063;28;20365;-63
2022/09/18 03:31:39;;;;;;;1.85;0.30;;;;;;;10.39;100.00;100405.81;5086076;28;20517;-64
2022/09/18 03:34:04;;;;;;;1.52;0.20;;;;;;;10.40;100.00;100410.84;5072353;28;20116;-65
2022/09/18 03:36:30;;;;;;;2.33;0.30;;;;;;;10.40;100.00;100417.88;5077305;28;20134;-64
2022/09/18 03:38:56;;;;;;;1.38;0.30;;;;;;;10.35;100.00;100418.31;5088612;28;20425;-64
2022/09/18 03:41:22;;;;;;;1.30;0.13;;;;;;;10.16;100.00;100419.16;5081963;28;20024;-64
2022/09/18 03:43:48;;;;;;;1.30;0.20;;;;;;;9.93;100.00;100416.09;5068058;28;20032;-65
2022/09/18 03:46:21;;;;;;;0.88;0.20;;;;;;;9.86;100.00;100419.41;5084668;28;20523;-65
2022/09/18 03:48:46;;;;;;;1.65;0.10;;;;;;;9.87;100.00;100413.25;5084781;28;20028;-64
2022/09/18 03:51:12;;;;;;;0.52;0.20;;;;;;;9.96;100.00;100415.81;5080461;28;20035;-64
2022/09/18 03:53:38;;;;;;;0.57;0.30;;;;;;;9.96;100.00;100417.59;5068651;28;20028;-64
2022/09/18 03:56:04;;;;;;;1.85;0.60;;;;;;;10.04;100.00;100417.69;5073840;28;20748;-68
2022/09/18 03:58:29;;;;;;;2.03;0.40;;;;;;;10.08;100.00;100416.47;5087870;28;20382;-65
2022/09/18 04:00:55;;;;;;;3.83;0.20;;;;;;;10.07;100.00;100414.00;5083000;28;20040;-65
2022/09/18 04:03:21;;;;;;;0.45;0.20;;;;;;;10.04;100.00;100414.28;5072701;28;20040;-64
2022/09/18 04:05:49;;;;;;;2.35;0.22;;;;;;;10.02;100.00;100417.03;5068112;28;20056;-63
2022/09/18 04:08:17;;;;;;;2.08;0.30;;;;;;;10.04;100.00;100420.31;5066306;28;20396;-64
2022/09/18 04:10:42;;;;;;;1.30;0.20;;;;;;;10.04;100.00;100425.50;5068542;28;20112;-64
2022/09/18 04:13:08;;;;;;;4.43;1.50;;;;;;;10.11;100.00;100426.59;5090393;28;20115;-64
2022/09/18 04:15:34;;;;;;;1.02;0.20;;;;;;;10.19;100.00;100421.53;5078107;28;20060;-65
2022/09/18 04:17:59;;;;;;;2.03;0.40;;;;;;;10.27;100.00;100428.63;5068250;28;20036;-63
2022/09/18 04:20:25;;;;;;;1.92;0.20;;;;;;;10.35;100.00;100433.13;5075085;28;20055;-61
2022/09/18 04:22:50;;;;;;;1.52;0.20;;;;;;;10.37;100.00;100436.41;5088836;28;20043;-61
2022/09/18 04:25:16;;;;;;;0.73;0.20;;;;;;;10.35;100.00;100436.53;5085973;28;20031;-62
2022/09/18 04:27:41;;;;;;;0.68;0.20;;;;;;;10.22;100.00;100434.25;5081151;28;20039;-61
2022/09/18 04:30:09;;;;;;;0.85;0.30;;;;;;;10.15;100.00;100440.13;5082891;28;20450;-62
2022/09/18 04:32:34;;;;;;;0.60;0.30;;;;;;;10.09;100.00;100436.31;5086626;28;20074;-62
2022/09/18 04:35:00;;;;;;;1.38;0.20;;;;;;;9.95;100.00;100448.00;5087465;28;20108;-61
2022/09/18 04:37:25;;;;;;;2.15;0.25;;;;;;;9.85;100.00;100447.22;5083371;28;20024;-62
2022/09/18 04:39:51;;;;;;;1.90;0.20;;;;;;;9.84;100.00;100456.00;5086706;28;20394;-62
2022/09/18 04:42:16;;;;;;;0.93;0.30;;;;;;;9.85;100.00;100451.59;5087119;28;20024;-66
2022/09/18 04:44:42;;;;;;;2.97;0.20;;;;;;;9.83;100.00;100456.94;5079502;28;20028;-66
2022/09/18 04:47:07;;;;;;;1.27;0.30;;;;;;;9.84;100.00;100450.78;5078181;28;20036;-61
2022/09/18 04:49:33;;;;;;;0.98;0.25;;;;;;;9.85;100.00;100452.44;5081406;28;20099;-62
2022/09/18 04:51:58;;;;;;;0.30;0.20;;;;;;;9.87;100.00;100460.09;5071824;28;20086;-62
2022/09/18 04:54:24;;;;;;;0.60;0.20;;;;;;;9.90;100.00;100452.00;5071702;28;20032;-62
2022/09/18 04:56:49;;;;;;;1.45;0.20;;;;;;;9.90;100.00;100460.63;5079585;28;20236;-62
2022/09/18 04:59:15;;;;;;;2.00;0.20;;;;;;;9.88;100.00;100456.53;5090020;28;20038;-63
2022/09/18 05:01:40;;;;;;;0.85;0.20;;;;;;;9.93;100.00;100464.72;5082420;28;20071;-61
2022/09/18 05:04:06;;;;;;;1.95;0.20;;;;;;;9.93;100.00;100457.72;5081957;28;20024;-62
2022/09/18 05:06:31;;;;;;;1.17;0.20;;;;;;;9.93;100.00;100470.75;5088479;28;20039;-62
2022/09/18 05:08:57;;;;;;;0.40;0.17;;;;;;;9.99;100.00;100464.16;5077320;28;20028;-62
2022/09/18 05:11:23;;;;;;;0.68;0.30;;;;;;;10.05;100.00;100467.97;5083765;28;20174;-61
2022/09/18 05:13:51;;;;;;;1.02;0.20;;;;;;;10.07;100.00;100461.66;5084434;28;20369;-61
2022/09/18 05:16:16;;;;;;;0.40;0.25;;;;;;;10.13;100.00;100471.53;5088086;28;20028;-63
2022/09/18 05:18:42;;;;;;;0.85;0.20;;;;;;;10.21;100.00;100471.69;5086281;28;20419;-62
2022/09/18 05:21:08;;;;;;;2.75;0.30;;;;;;;10.20;100.00;100470.03;5084426;28;20017;-62
2022/09/18 05:23:34;;;;;;;1.48;0.30;;;;;;;10.20;100.00;100470.03;5083913;28;20074;-61
2022/09/18 05:26:00;;;;;;;3.25;0.30;;;;;;;10.15;100.00;100467.00;5084564;28;20347;-62
2022/09/18 05:28:26;;;;;;;0.47;0.20;;;;;;;10.03;100.00;100472.50;5079941;28;20107;-62
2022/09/18 05:30:52;;;;;;;2.70;0.30;;;;;;;10.01;100.00;100479.63;5085144;28;20143;-61
2022/09/18 05:33:17;;;;;;;2.25;0.30;;;;;;;10.04;100.00;100482.78;5081097;28;20028;-62
2022/09/18 05:35:43;;;;;;;1.85;0.30;;;;;;;10.00;100.00;100497.03;5090477;28;20469;-62
2022/09/18 05:38:10;;;;;;;2.00;0.30;;;;;;;9.96;100.00;100496.50;5090131;28;20447;-62
2022/09/18 05:40:36;;;;;;;1.10;0.13;;;;;;;10.07;100.00;100485.09;5071201;28;20051;-62
2022/09/18 05:43:03;;;;;;;0.82;0.20;;;;;;;10.10;100.00;100484.81;5086917;28;20050;-62
2022/09/18 05:45:28;;;;;;;1.45;0.20;;;;;;;10.10;100.00;100492.63;5091126;28;20016;-62
2022/09/18 05:47:59;;;;;;;3.25;0.60;;;;;;;10.03;100.00;100501.13;5085324;28;20046;-62
2022/09/18 05:50:27;;;;;;;1.85;0.20;;;;;;;10.05;100.00;100515.66;5071876;28;20025;-63
2022/09/18 05:52:58;;;;;;;2.83;0.30;;;;;;;10.07;100.00;100518.13;5069613;28;20044;-62
2022/09/18 05:55:23;;;;;;;1.70;0.28;;;;;;;10.07;100.00;100513.72;5087288;28;20157;-62
2022/09/18 05:57:52;;;;;;;1.48;0.30;;;;;;;10.10;100.00;100510.03;5093714;28;20035;-61
2022/09/18 06:00:18;;;;;;;0.30;0.10;;;;;;;10.15;100.00;100502.63;5088302;28;20028;-61
2022/09/18 06:02:59;;;;;;;1.55;0.10;;;;;;;10.17;100.00;100508.50;5090705;28;20081;-64
2022/09/18 06:05:25;;;;;;;3.47;0.30;;;;;;;10.20;100.00;100506.47;5088732;28;20494;-63
2022/09/18 06:07:51;;;;;;;0.43;0.20;;;;;;;10.25;100.00;100499.06;5090434;28;20039;-63
2022/09/18 06:10:19;;;;;;;2.38;0.10;;;;;;;10.30;100.00;100509.88;5082951;28;20399;-64
2022/09/18 06:12:45;;;;;;;0.70;0.15;;;;;;;10.32;100.00;100507.16;5081577;28;20074;-63
2022/09/18 06:15:11;;;;;;;2.20;0.20;;;;;;;10.32;100.00;100514.13;5109579;28;20360;-62
2022/09/18 06:17:37;;;;;;;1.23;0.20;;;;;;;10.36;100.00;100512.88;5110584;28;20031;-63
2022/09/18 06:20:04;;;;;;;1.70;0.10;;;;;;;10.35;100.00;100516.47;5094027;28;20091;-63
2022/09/18 06:22:31;;;;;;;0.90;0.32;;;;;;;10.36;100.00;100524.13;5096458;28;20024;-66
2022/09/18 06:24:56;;;;;;;3.28;0.20;;;;;;;10.38;100.00;100511.78;5080787;28;20029;-62
2022/09/18 06:27:22;;;;;;;0.40;0.10;;;;;;;10.49;100.00;100523.78;5075880;28;20033;-63
2022/09/18 06:29:47;;;;;;;1.00;0.10;;;;;;;10.63;100.00;100515.50;5083443;28;20132;-66
2022/09/18 06:32:13;;;;;;;0.50;0.15;;;;;;;10.84;100.00;100513.50;5076704;28;20044;-62
2022/09/18 06:34:39;;;;;;;0.50;0.10;;;;;;;11.09;100.00;100514.59;5090013;28;20039;-65
2022/09/18 06:37:05;;;;;;;1.35;0.10;;;;;;;11.25;100.00;100525.19;5090479;28;20032;-63
2022/09/18 06:39:30;;;;;;;0.52;0.10;;;;;;;11.30;100.00;100520.38;5084950;28;20065;-63
2022/09/18 06:41:58;;;;;;;1.30;0.10;;;;;;;11.39;100.00;100523.03;5070976;28;20034;-63
2022/09/18 06:44:24;;;;;;;2.15;0.10;;;;;;;11.50;100.00;100520.22;5070238;28;20086;-62
2022/09/18 06:46:50;;;;;;;1.33;0.10;;;;;;;11.60;100.00;100520.97;5085016;28;20475;-61
2022/09/18 06:49:16;;;;;;;3.00;0.10;;;;;;;11.73;100.00;100517.97;5089302;28;20054;-62
2022/09/18 06:51:41;;;;;;;2.25;0.10;;;;;;;11.83;100.00;100521.31;5123236;27;20035;-62
2022/09/18 06:54:06;;;;;;;0.22;0.10;;;;;;;11.97;100.00;100518.19;5079700;28;20035;-63
2022/09/18 06:56:32;;;;;;;1.85;0.10;;;;;;;12.19;100.00;100520.31;5082189;28;20035;-62
2022/09/18 06:58:58;;;;;;;2.67;0.10;;;;;;;12.38;100.00;100527.09;5080667;28;20031;-63
2022/09/18 07:01:23;;;;;;;2.45;0.10;;;;;;;12.45;100.00;100529.91;5071527;28;20036;-62
2022/09/18 07:03:49;;;;;;;0.65;0.20;;;;;;;12.49;100.00;100523.41;5086535;28;20024;-61
2022/09/18 07:06:15;;;;;;;2.28;0.10;;;;;;;12.48;100.00;100521.75;5089426;28;20079;-63
2022/09/18 07:08:41;;;;;;;1.75;0.10;;;;;;;12.61;100.00;100522.16;5082791;28;20031;-63
2022/09/18 07:11:06;;;;;;;0.52;0.10;;;;;;;12.71;100.00;100520.25;5078425;28;20040;-62
2022/09/18 07:13:33;;;;;;;0.65;0.10;;;;;;;12.78;100.00;100513.41;5070113;28;20514;-63
2022/09/18 07:15:59;;;;;;;1.38;0.63;;;;;;;12.93;100.00;100501.38;5072502;28;20058;-65
2022/09/18 07:18:24;;;;;;;0.63;0.10;;;;;;;13.07;100.00;100512.19;5070935;28;20029;-66
2022/09/18 07:20:50;;;;;;;0.20;0.00;;;;;;;13.08;100.00;100514.66;5080526;28;20067;-65
2022/09/18 07:23:16;;;;;;;0.40;0.00;;;;;;;13.17;100.00;100512.91;5082521;28;20025;-67
2022/09/18 07:25:41;;;;;;;1.17;0.10;;;;;;;13.35;100.00;100510.97;5082811;28;20078;-62
2022/09/18 07:28:09;;;;;;;0.32;0.00;;;;;;;13.49;100.00;100505.13;5098858;28;20024;-62
2022/09/18 07:30:38;;;;;;;1.10;0.10;;;;;;;13.66;100.00;100512.97;5075198;28;20384;-62
2022/09/18 07:33:06;;;;;;;1.75;0.10;;;;;;;13.74;100.00;100521.63;5072530;28;20174;-63
2022/09/18 07:35:32;;;;;;;0.65;0.10;;;;;;;13.75;100.00;100523.28;5068396;28;20020;-63
2022/09/18 07:37:59;;;;;;;2.95;0.10;;;;;;;13.92;100.00;100513.63;5067806;28;20030;-62
2022/09/18 07:40:28;;;;;;;1.27;0.40;;;;;;;14.10;100.00;100506.41;5087410;28;20032;-62
2022/09/18 07:43:01;;;;;;;0.10;0.00;;;;;;;14.22;99.84;100510.28;5087983;28;20106;-62
2022/09/18 07:45:28;;;;;;;1.90;0.10;;;;;;;14.32;99.87;100520.59;5086604;28;20110;-65
2022/09/18 07:47:54;;;;;;;1.08;0.08;;;;;;;14.34;99.74;100528.28;5076251;28;20516;-63
2022/09/18 07:50:19;;;;;;;2.03;0.03;;;;;;;14.39;98.80;100533.84;5085644;28;20111;-63
2022/09/18 07:52:54;;;;;;;1.55;0.17;;;;;;;14.51;99.14;100527.31;5076786;28;20535;-63
2022/09/18 07:55:21;;;;;;;2.13;0.10;;;;;;;14.68;99.48;100526.25;5073060;28;20027;-64
2022/09/18 07:57:53;;;;;;;0.73;0.10;;;;;;;14.79;98.32;100517.19;5082815;28;20016;-62
2022/09/18 08:00:18;;;;;;;1.65;0.17;;;;;;;14.85;98.42;100522.56;5095991;28;20035;-62
2022/09/18 08:02:44;;;;;;;0.73;0.10;;;;;;;14.83;97.27;100521.94;5071273;28;20032;-63
2022/09/18 08:05:09;;;;;;;1.25;0.10;;;;;;;14.84;98.17;100526.19;5068217;28;20101;-61
2022/09/18 08:07:35;;;;;;;0.95;0.00;;;;;;;14.90;95.48;100519.44;5069090;28;20377;-63
2022/09/18 08:10:01;;;;;;;0.22;0.10;;;;;;;15.02;95.36;100527.75;5067767;28;20060;-61
2022/09/18 08:12:26;;;;;;;0.47;0.00;;;;;;;15.19;96.86;100529.28;5068706;28;20035;-61
2022/09/18 08:14:52;;;;;;;1.05;0.10;;;;;;;15.19;94.32;100537.97;5069967;28;20029;-61
2022/09/18 08:17:18;;;;;;;3.03;0.10;;;;;;;15.10;96.13;100535.59;5068376;28;20091;-61
2022/09/18 08:19:43;;;;;;;1.05;0.10;;;;;;;15.07;95.63;100543.81;5068070;28;20028;-61
2022/09/18 08:22:09;;;;;;;5.50;0.10;;;;;;;15.09;97.26;100545.28;5067286;28;20055;-61
2022/09/18 08:24:34;;;;;;;6.53;0.10;;;;;;;15.25;96.55;100545.16;5067883;28;20032;-61
2022/09/18 08:27:02;;;;;;;2.33;0.10;;;;;;;15.47;95.79;100546.19;5071640;28;20028;-61
2022/09/18 08:29:30;;;;;;;1.98;0.10;;;;;;;15.59;96.54;100539.59;5077077;28;20507;-61
2022/09/18 08:31:56;;;;;;;0.22;0.10;;;;;;;15.72;95.12;100536.34;5077921;28;20068;-62
2022/09/18 08:34:23;;;;;;;0.50;0.10;;;;;;;15.77;95.66;100536.63;5067502;28;20577;-61
2022/09/18 08:36:48;;;;;;;4.05;0.10;;;;;;;15.83;95.91;100529.88;5079111;28;20040;-60
2022/09/18 08:39:14;;;;;;;1.65;0.20;;;;;;;15.85;96.21;100531.31;5076612;28;20086;-60
2022/09/18 08:41:51;;;;;;;0.40;0.10;;;;;;;15.87;92.40;100533.78;5087952;28;20505;-60
2022/09/18 08:44:23;;;;;;;1.23;0.10;;;;;;;16.02;95.47;100525.94;5087259;28;20050;-61
2022/09/18 08:47:30;;;;;;;0.50;0.10;;;;;;;16.08;91.97;100525.19;5064634;28;20029;-59
2022/09/18 08:50:05;;;;;;;0.65;0.10;;;;;;;16.19;95.64;100511.63;5054622;28;20123;-60
2022/09/18 08:52:36;;;;;;;0.52;0.00;;;;;;;16.31;95.91;100530.41;5067725;28;20075;-59
2022/09/18 08:55:04;;;;;;;0.45;0.05;;;;;;;16.37;94.87;100542.84;5071283;28;20101;-59
2022/09/18 08:57:41;;;;;;;2.40;0.10;;;;;;;16.20;96.86;100539.53;5076374;28;20467;-60
2022/09/18 09:00:19;;;;;;;0.63;0.15;;;;;;;15.94;97.99;100547.84;5074293;28;20484;-60
2022/09/18 09:02:51;;;;;;;0.98;0.25;;;;;;;15.89;97.64;100550.19;5080701;28;20513;-61
2022/09/18 09:05:20;;;;;;;2.72;0.20;;;;;;;16.06;98.42;100543.78;5072756;28;20115;-60
2022/09/18 09:08:07;;;;;;;2.75;0.10;;;;;;;16.24;98.46;100546.88;5079851;28;20103;-60
2022/09/18 09:10:41;;;;;;;0.32;0.10;;;;;;;16.20;98.26;100540.34;5087578;28;20457;-60
2022/09/18 09:13:37;;;;;;;0.65;0.10;;;;;;;16.07;96.95;100540.13;5086083;28;20047;-59
2022/09/18 09:16:03;;;;;;;;;;;;;;;16.02;94.87;100547.78;5083024;28;20040;-60
2022/09/18 09:18:50;;;;;;;2.50;0.10;;;;;;;16.14;100.00;100553.38;5075972;28;20389;-60
2022/09/18 09:21:33;;;;;;;0.30;0.10;;;;;;;16.22;100.00;100550.69;5070035;28;20338;-60
2022/09/18 09:24:24;;;;;;;2.35;0.10;;;;;;;16.32;100.00;100548.63;5072023;28;20164;-61
2022/09/18 09:26:53;;;;;;;0.25;0.08;;;;;;;16.39;100.00;100557.44;5085634;28;20324;-61
2022/09/18 09:29:30;;;;;;;1.05;0.10;;;;;;;16.51;100.00;100557.81;5080992;28;20051;-61
2022/09/18 09:32:13;;;;;;;1.48;0.00;;;;;;;16.63;99.61;100551.06;5082186;28;20522;-61
2022/09/18 09:34:45;;;;;;;0.65;0.03;;;;;;;16.62;99.93;100546.81;5072265;28;20082;-61
2022/09/18 09:37:18;;;;;;;1.75;0.10;;;;;;;16.63;99.66;100561.59;5085104;28;20031;-61
2022/09/18 09:39:53;;;;;;;0.90;0.10;;;;;;;16.65;100.00;100562.25;5086016;28;20031;-60
2022/09/18 09:42:25;;;;;;;0.95;0.10;;;;;;;16.86;99.88;100557.09;5078904;28;20032;-60
2022/09/18 09:44:56;;;;;;;2.97;0.13;;;;;;;17.04;98.45;100550.59;5084385;28;20036;-61
2022/09/18 09:47:49;;;;;;;2.45;0.10;;;;;;;17.16;93.53;100555.22;5084523;28;20479;-61
2022/09/18 09:50:33;;;;;;;2.47;0.10;;;;;;;17.23;97.12;100542.13;5085645;28;20044;-61
2022/09/18 09:53:03;;;;;;;3.42;0.08;;;;;;;17.19;97.62;100548.78;5084753;28;20036;-61
2022/09/18 09:55:37;;;;;;;1.85;0.10;;;;;;;16.97;96.72;100544.47;5078168;28;20033;-61
2022/09/18 09:58:27;;;;;;;1.02;0.10;;;;;;;17.06;96.32;100538.09;5075713;28;20108;-62
2022/09/18 10:01:15;;;;;;;0.20;0.00;;;;;;;17.12;96.23;100524.19;5087285;28;20040;-62
2022/09/18 10:04:05;;;;;;;0.35;0.10;;;;;;;17.18;96.21;100518.19;5080192;28;20036;-64
2022/09/18 10:06:57;;;;;;;2.67;0.10;;;;;;;17.30;94.78;100516.69;5081329;28;20036;-63
2022/09/18 10:09:22;;;;;;;1.67;0.10;;;;;;;17.36;97.74;100521.22;5080643;28;20036;-63
2022/09/18 10:12:03;;;;;;;0.63;0.00;;;;;;;17.58;96.35;100520.19;5089668;28;20051;-63
2022/09/18 10:14:33;;;;;;;1.85;0.20;;;;;;;17.81;95.82;100520.03;5087150;28;20039;-63
2022/09/18 10:17:03;;;;;;;0.47;0.10;;;;;;;17.90;96.12;100513.63;5083316;28;20025;-62
2022/09/18 10:19:35;;;;;;;2.33;0.10;;;;;;;17.91;95.28;100519.72;5084072;28;20066;-63
2022/09/18 10:22:06;;;;;;;0.50;0.32;;;;;;;17.79;95.91;100531.78;5079087;28;20032;-63
2022/09/18 10:24:56;;;;;;;2.10;0.10;;;;;;;17.77;94.52;100537.22;5083511;28;20049;-63
2022/09/18 10:27:22;;;;;;;0.40;0.00;;;;;;;17.89;95.76;100530.44;5088652;28;20042;-63
2022/09/18 10:29:48;;;;;;;0.70;0.10;;;;;;;17.98;94.83;100530.28;5091760;28;20024;-63
2022/09/18 10:32:34;;;;;;;0.30;0.10;;;;;;;17.96;92.19;100527.84;5083016;28;20070;-63
2022/09/18 10:35:00;;;;;;;2.10;0.03;;;;;;;17.88;95.12;100530.63;5081917;28;20039;-63
2022/09/18 10:37:28;;;;;;;1.35;0.10;;;;;;;17.87;95.05;100534.28;5088705;28;20028;-63
2022/09/18 10:40:00;;;;;;;1.08;0.10;;;;;;;17.85;93.24;100525.75;5091908;28;20028;-63
2022/09/18 10:42:34;;;;;;;1.42;0.10;;;;;;;17.80;95.58;100523.69;5086967;28;20483;-62
2022/09/18 10:45:04;;;;;;;2.42;0.00;;;;;;;17.90;96.33;100528.63;5081492;28;20810;-63
2022/09/18 10:47:34;;;;;;;0.98;0.10;;;;;;;17.96;94.12;100511.25;5083248;28;20115;-63
2022/09/18 10:50:06;;;;;;;0.50;0.00;;;;;;;18.06;92.99;100512.50;5080465;28;20032;-64
2022/09/18 10:52:38;;;;;;;0.75;0.10;;;;;;;18.19;92.74;100517.88;5083541;28;20155;-63
2022/09/18 10:55:04;;;;;;;0.52;0.10;;;;;;;18.11;92.56;100506.66;5082885;28;20488;-63
2022/09/18 10:57:55;;;;;;;1.20;0.10;;;;;;;17.99;92.83;100506.38;5083237;28;20135;-63
2022/09/18 11:00:20;;;;;;;0.60;0.00;;;;;;;17.92;93.77;100512.63;5085903;28;20032;-62
2022/09/18 11:03:09;;;;;;;0.30;0.00;;;;;;;17.88;92.10;100517.47;5083796;28;20086;-62
2022/09/18 11:05:36;;;;;;;0.30;0.08;;;;;;;17.96;92.60;100514.66;5080598;28;20055;-63
2022/09/18 11:08:19;;;;;;;1.77;0.15;;;;;;;18.06;89.79;100506.41;5081948;28;20434;-62
2022/09/18 11:10:50;;;;;;;0.50;0.00;;;;;;;18.20;91.04;100508.97;5083974;28;20542;-62
2022/09/18 11:13:27;;;;;;;0.90;0.10;;;;;;;18.37;89.50;100508.66;5074341;28;20020;-63
2022/09/18 11:15:56;;;;;;;0.50;0.05;;;;;;;18.60;90.45;100517.13;5088635;28;20035;-63
2022/09/18 11:18:24;;;;;;;2.40;0.00;;;;;;;18.55;89.83;100516.88;5081305;28;20382;-63
2022/09/18 11:20:51;;;;;;;0.85;0.00;;;;;;;18.59;89.59;100507.56;5071984;28;20025;-62
2022/09/18 11:23:35;;;;;;;2.55;0.00;;;;;;;18.57;88.14;100499.03;5078540;28;20024;-62
2022/09/18 11:26:18;;;;;;;1.15;0.08;;;;;;;18.60;87.70;100506.56;5072341;28;20096;-62
2022/09/18 11:28:57;;;;;;;1.17;0.10;;;;;;;18.75;87.29;100511.72;5112621;27;20395;-63
2022/09/18 11:31:23;;;;;;;0.57;0.00;;;;;;;18.83;87.73;100503.66;5080750;28;20052;-63
2022/09/18 11:33:56;;;;;;;3.15;0.00;;;;;;;18.82;84.93;100510.75;5077798;28;20114;-63
2022/09/18 11:36:28;;;;;;;2.10;0.00;;;;;;;18.62;86.22;100501.09;5084346;28;20535;-62